createdAt,value
2022-07-25T00:02:16.110Z,96.40
2022-07-25T00:04:44.139Z,96.50
2022-07-25T00:07:12.061Z,96.50
2022-07-25T00:09:39.884Z,96.50
2022-07-25T00:12:08.203Z,96.60
2022-07-25T00:14:40.391Z,96.60
2022-07-25T00:17:08.275Z,96.70
2022-07-25T00:19:36.099Z,96.80
2022-07-25T00:22:04.013Z,96.90
2022-07-25T00:24:31.943Z,97.20
2022-07-25T00:26:59.872Z,96.90
2022-07-25T00:29:27.733Z,96.90
2022-07-25T00:31:56.974Z,96.90
2022-07-25T00:34:24.800Z,96.90
2022-07-25T00:36:52.743Z,96.90
2022-07-25T00:39:20.617Z,97.10
2022-07-25T00:41:48.495Z,97.10
2022-07-25T00:44:24.502Z,97.20
2022-07-25T00:46:53.337Z,97.30
2022-07-25T00:49:22.652Z,97.40
2022-07-25T00:51:50.969Z,97.40
2022-07-25T00:54:19.792Z,97.50
2022-07-25T00:56:49.217Z,97.50
2022-07-25T00:59:17.680Z,97.60
2022-07-25T01:01:47.921Z,97.60
2022-07-25T01:04:17.630Z,97.60
2022-07-25T01:06:46.900Z,97.60
2022-07-25T01:09:15.310Z,97.70
2022-07-25T01:11:43.507Z,97.70
2022-07-25T01:14:11.418Z,97.70
2022-07-25T01:16:40.944Z,97.80
2022-07-25T01:19:09.125Z,97.90
2022-07-25T01:21:41.057Z,98.00
2022-07-25T01:24:09.921Z,98.00
2022-07-25T01:26:37.947Z,98.00
2022-07-25T01:29:06.118Z,98.00
2022-07-25T01:31:34.108Z,98.00
2022-07-25T01:34:02.265Z,98.10
2022-07-25T01:36:30.162Z,98.20
2022-07-25T01:38:59.986Z,98.30
2022-07-25T01:41:27.904Z,98.40
2022-07-25T01:43:55.906Z,98.40
2022-07-25T01:46:23.869Z,98.40
2022-07-25T01:48:51.883Z,98.40
2022-07-25T01:51:19.828Z,98.40
2022-07-25T01:53:48.416Z,98.50
2022-07-25T01:56:17.737Z,98.60
2022-07-25T01:58:48.762Z,98.60
2022-07-25T02:01:16.966Z,98.60
2022-07-25T02:03:47.235Z,98.50
2022-07-25T02:06:15.070Z,98.50
2022-07-25T02:08:42.900Z,98.60
2022-07-25T02:11:10.835Z,98.80
2022-07-25T02:13:40.042Z,98.90
2022-07-25T02:16:07.923Z,98.90
2022-07-25T02:18:35.866Z,99.00
2022-07-25T02:21:07.052Z,99.00
2022-07-25T02:23:41.961Z,99.10
2022-07-25T02:26:09.861Z,99.10
2022-07-25T02:28:39.101Z,99.10
2022-07-25T02:31:07.059Z,99.10
2022-07-25T02:33:35.080Z,99.10
2022-07-25T02:36:02.915Z,99.20
2022-07-25T02:38:30.761Z,99.20
2022-07-25T02:40:58.657Z,99.30
2022-07-25T02:43:26.507Z,99.30
2022-07-25T02:45:55.782Z,99.30
2022-07-25T02:48:23.722Z,99.40
2022-07-25T02:50:51.539Z,99.40
2022-07-25T02:53:34.259Z,99.40
2022-07-25T02:56:07.650Z,99.40
2022-07-25T02:58:35.689Z,99.50
2022-07-25T03:01:08.673Z,99.60
2022-07-25T03:03:36.643Z,99.60
2022-07-25T03:06:04.929Z,99.70
2022-07-25T03:08:32.799Z,99.70
2022-07-25T03:11:00.698Z,99.70
2022-07-25T03:13:28.591Z,99.80
2022-07-25T03:15:57.193Z,99.90
2022-07-25T03:18:26.393Z,99.90
2022-07-25T03:20:54.251Z,99.90
2022-07-25T03:23:22.138Z,99.90
2022-07-25T03:25:49.959Z,99.90
2022-07-25T03:28:17.803Z,99.90
2022-07-25T03:30:45.705Z,99.90
2022-07-25T03:33:13.622Z,99.90
2022-07-25T03:35:42.992Z,99.90
2022-07-25T03:38:10.951Z,99.90
2022-07-25T03:40:39.460Z,99.90
2022-07-25T03:43:08.690Z,99.90
2022-07-25T03:45:36.619Z,99.90
2022-07-25T03:48:04.822Z,99.90
2022-07-25T03:50:32.713Z,99.90
2022-07-25T03:53:01.886Z,99.90
2022-07-25T03:55:29.986Z,99.90
2022-07-25T03:57:57.808Z,99.90
2022-07-25T04:00:25.663Z,99.90
2022-07-25T04:02:55.107Z,99.90
2022-07-25T04:05:22.934Z,99.90
2022-07-25T04:07:50.810Z,99.90
2022-07-25T04:10:20.005Z,99.90
2022-07-25T04:12:47.821Z,99.90
2022-07-25T04:15:16.392Z,99.90
2022-07-25T04:17:44.250Z,99.90
2022-07-25T04:20:13.809Z,99.90
2022-07-25T04:22:46.294Z,99.90
2022-07-25T04:25:14.693Z,99.90
2022-07-25T04:27:44.369Z,99.90
2022-07-25T04:30:13.971Z,99.90
2022-07-25T04:32:52.248Z,99.90
2022-07-25T04:35:20.086Z,99.90
2022-07-25T04:37:47.985Z,99.90
2022-07-25T04:40:15.829Z,99.90
2022-07-25T04:42:45.032Z,99.90
2022-07-25T04:45:13.219Z,99.90
2022-07-25T04:47:41.159Z,99.90
2022-07-25T04:50:09.955Z,99.90
2022-07-25T04:52:37.828Z,99.50
2022-07-25T04:55:06.567Z,98.20
2022-07-25T04:57:34.392Z,97.50
2022-07-25T05:00:04.349Z,97.20
2022-07-25T05:02:32.426Z,96.80
2022-07-25T05:05:00.428Z,96.70
2022-07-25T05:07:31.101Z,97.00
2022-07-25T05:09:58.993Z,96.00
2022-07-25T05:12:26.845Z,98.40
2022-07-25T05:14:55.108Z,96.20
2022-07-25T05:17:24.357Z,95.50
2022-07-25T05:19:52.192Z,95.30
2022-07-25T05:22:20.024Z,95.10
2022-07-25T05:24:48.569Z,94.90
2022-07-25T05:27:16.394Z,94.80
2022-07-25T05:29:44.354Z,94.50
2022-07-25T05:32:12.200Z,94.20
2022-07-25T05:34:41.362Z,94.20
2022-07-25T05:37:09.191Z,93.70
2022-07-25T05:39:37.432Z,97.30
2022-07-25T05:42:05.390Z,93.60
2022-07-25T05:44:33.250Z,95.20
2022-07-25T05:47:01.250Z,93.30
2022-07-25T05:49:29.291Z,93.90
2022-07-25T05:51:58.589Z,93.30
2022-07-25T05:54:26.416Z,93.50
2022-07-25T05:56:55.487Z,93.70
2022-07-25T05:59:23.496Z,95.30
2022-07-25T06:01:51.432Z,93.00
2022-07-25T06:04:21.938Z,95.30
2022-07-25T06:06:52.186Z,91.90
2022-07-25T06:09:22.328Z,91.60
2022-07-25T06:11:58.052Z,92.60
2022-07-25T06:14:28.811Z,91.50
2022-07-25T06:16:56.720Z,91.40
2022-07-25T06:19:24.550Z,91.80
2022-07-25T06:21:52.404Z,91.50
2022-07-25T06:24:21.570Z,91.40
2022-07-25T06:26:49.415Z,91.60
2022-07-25T06:29:17.448Z,91.00
2022-07-25T06:31:46.500Z,91.80
2022-07-25T06:34:15.701Z,90.80
2022-07-25T06:36:43.674Z,90.20
2022-07-25T06:39:11.790Z,92.10
2022-07-25T06:41:41.139Z,88.30
2022-07-25T06:44:09.402Z,90.00
2022-07-25T06:46:37.623Z,88.50
2022-07-25T06:49:05.800Z,88.70
2022-07-25T06:51:33.891Z,87.00
2022-07-25T06:54:02.001Z,86.30
2022-07-25T06:56:32.786Z,85.10
2022-07-25T06:59:02.128Z,86.50
2022-07-25T07:01:30.256Z,86.80
2022-07-25T07:03:58.203Z,85.00
2022-07-25T07:06:26.010Z,86.70
2022-07-25T07:08:53.896Z,81.50
2022-07-25T07:11:21.714Z,81.40
2022-07-25T07:13:49.590Z,80.60
2022-07-25T07:16:18.977Z,80.60
2022-07-25T07:18:49.327Z,83.50
2022-07-25T07:21:21.558Z,80.70
2022-07-25T07:23:53.455Z,78.10
2022-07-25T07:26:22.371Z,80.50
2022-07-25T07:28:50.181Z,79.60
2022-07-25T07:31:19.643Z,83.70
2022-07-25T07:33:47.638Z,79.20
2022-07-25T07:36:15.577Z,78.60
2022-07-25T07:38:44.851Z,83.90
2022-07-25T07:41:12.762Z,82.70
2022-07-25T07:43:40.632Z,88.00
2022-07-25T07:46:09.067Z,90.40
2022-07-25T07:48:38.337Z,90.70
2022-07-25T07:51:06.432Z,90.10
2022-07-25T07:53:48.408Z,87.40
2022-07-25T07:56:17.343Z,90.30
2022-07-25T07:58:45.192Z,91.30
2022-07-25T08:01:13.355Z,93.20
2022-07-25T08:03:42.586Z,91.70
2022-07-25T08:06:10.399Z,94.70
2022-07-25T08:08:38.214Z,91.90
2022-07-25T08:11:06.321Z,92.20
2022-07-25T08:13:34.894Z,94.00
2022-07-25T08:16:04.262Z,93.40
2022-07-25T08:18:33.467Z,93.30
2022-07-25T08:21:05.933Z,93.10
2022-07-25T08:23:35.378Z,93.30
2022-07-25T08:26:03.963Z,92.00
2022-07-25T08:28:32.016Z,92.70
2022-07-25T08:30:59.929Z,94.10
2022-07-25T08:33:28.297Z,93.60
2022-07-25T08:35:58.676Z,93.60
2022-07-25T08:38:29.738Z,94.00
2022-07-25T08:40:58.758Z,94.60
2022-07-25T08:43:27.253Z,93.40
2022-07-25T08:45:56.119Z,92.70
2022-07-25T08:48:25.742Z,94.40
2022-07-25T08:50:56.909Z,94.10
2022-07-25T08:53:33.972Z,94.30
2022-07-25T08:56:10.714Z,94.50
2022-07-25T08:58:41.837Z,93.20
2022-07-25T09:01:12.507Z,92.10
2022-07-25T09:03:40.551Z,92.70
2022-07-25T09:06:17.355Z,93.70
2022-07-25T09:08:53.261Z,93.80
2022-07-25T09:11:33.049Z,93.00
2022-07-25T09:14:04.844Z,93.20
2022-07-25T09:16:34.824Z,91.80
2022-07-25T09:19:14.070Z,93.00
2022-07-25T09:21:43.240Z,93.50
2022-07-25T09:24:15.757Z,92.70
2022-07-25T09:26:50.422Z,90.50
2022-07-25T09:29:21.443Z,90.60
2022-07-25T09:31:49.755Z,88.50
2022-07-25T09:34:38.721Z,89.70
2022-07-25T09:37:08.159Z,91.00
2022-07-25T09:39:45.852Z,90.70
2022-07-25T09:42:25.323Z,90.70
2022-07-25T09:45:06.270Z,90.20
2022-07-25T09:47:37.896Z,90.30
2022-07-25T09:50:07.732Z,90.00
2022-07-25T09:52:36.626Z,90.30
2022-07-25T09:55:08.076Z,88.00
2022-07-25T09:57:37.381Z,88.60
2022-07-25T10:00:08.270Z,89.70
2022-07-25T10:02:46.325Z,89.10
2022-07-25T10:05:18.872Z,90.10
2022-07-25T10:07:49.015Z,89.40
2022-07-25T10:10:27.773Z,88.60
2022-07-25T10:13:11.042Z,90.00
2022-07-25T10:15:44.705Z,90.00
2022-07-25T10:18:12.916Z,89.70
2022-07-25T10:20:40.911Z,88.80
2022-07-25T10:23:18.984Z,89.20
2022-07-25T10:25:49.081Z,88.80
2022-07-25T10:28:21.041Z,89.50
2022-07-25T10:30:58.244Z,89.10
2022-07-25T10:33:26.288Z,90.10
2022-07-25T10:35:54.232Z,89.40
2022-07-25T10:38:26.248Z,88.50
2022-07-25T10:40:54.354Z,87.70
2022-07-25T10:43:25.545Z,83.80
2022-07-25T10:45:55.261Z,85.00
2022-07-25T10:48:25.580Z,82.40
2022-07-25T10:50:57.924Z,85.20
2022-07-25T10:53:31.995Z,86.00
2022-07-25T10:56:06.150Z,84.80
2022-07-25T10:58:54.220Z,85.60
2022-07-25T11:01:24.763Z,85.40
2022-07-25T11:03:54.197Z,83.90
2022-07-25T11:06:32.240Z,83.90
2022-07-25T11:09:02.037Z,82.20
2022-07-25T11:11:38.218Z,80.10
2022-07-25T11:14:16.280Z,81.90
2022-07-25T11:16:44.668Z,80.50
2022-07-25T11:19:21.133Z,78.10
2022-07-25T11:21:51.525Z,79.70
2022-07-25T11:24:19.398Z,80.20
2022-07-25T11:26:49.185Z,78.70
2022-07-25T11:29:23.757Z,76.20
2022-07-25T11:31:56.411Z,79.40
2022-07-25T11:34:26.240Z,78.20
2022-07-25T11:36:57.249Z,79.50
2022-07-25T11:39:27.124Z,78.40
2022-07-25T11:42:03.228Z,75.90
2022-07-25T11:44:34.408Z,78.40
2022-07-25T11:47:02.927Z,79.70
2022-07-25T11:49:30.945Z,78.00
2022-07-25T11:51:59.057Z,73.40
2022-07-25T11:54:26.878Z,76.30
2022-07-25T11:56:54.772Z,76.20
2022-07-25T11:59:22.703Z,74.80
2022-07-25T12:01:52.778Z,75.70
2022-07-25T12:04:21.334Z,72.90
2022-07-25T12:06:50.766Z,75.10
2022-07-25T12:09:20.362Z,72.70
2022-07-25T12:11:49.350Z,73.30
2022-07-25T12:14:17.601Z,70.70
2022-07-25T12:16:45.631Z,74.10
2022-07-25T12:19:22.574Z,74.10
2022-07-25T12:21:50.556Z,70.70
2022-07-25T12:24:18.466Z,73.50
2022-07-25T12:26:46.385Z,74.70
2022-07-25T12:29:14.248Z,71.40
2022-07-25T12:31:42.073Z,71.70
2022-07-25T12:34:09.896Z,72.90
2022-07-25T12:36:43.773Z,71.10
2022-07-25T12:39:11.700Z,72.80
2022-07-25T12:41:40.028Z,73.20
2022-07-25T12:44:07.861Z,70.40
2022-07-25T12:46:35.994Z,73.20
2022-07-25T12:49:04.323Z,73.20
2022-07-25T12:51:32.522Z,72.60
2022-07-25T12:54:01.770Z,72.50
2022-07-25T12:56:29.605Z,71.50
2022-07-25T12:58:57.413Z,70.10
2022-07-25T13:01:25.358Z,71.50
2022-07-25T13:03:53.257Z,72.90
2022-07-25T13:06:21.131Z,73.00
2022-07-25T13:08:48.991Z,72.40
2022-07-25T13:11:18.153Z,69.70
2022-07-25T13:13:46.109Z,72.70
2022-07-25T13:16:14.868Z,71.40
2022-07-25T13:18:44.265Z,71.90
2022-07-25T13:21:12.206Z,71.90
2022-07-25T13:23:40.141Z,71.10
2022-07-25T13:26:08.645Z,70.40
2022-07-25T13:28:37.890Z,70.70
2022-07-25T13:31:06.928Z,67.00
2022-07-25T13:33:34.797Z,67.20
2022-07-25T13:36:02.727Z,68.90
2022-07-25T13:38:30.609Z,69.10
2022-07-25T13:40:59.216Z,68.90
2022-07-25T13:43:27.133Z,69.50
2022-07-25T13:45:56.414Z,67.30
2022-07-25T13:48:29.814Z,69.70
2022-07-25T13:50:59.177Z,68.40
2022-07-25T13:53:30.222Z,68.30
2022-07-25T13:55:59.398Z,67.40
2022-07-25T13:58:27.874Z,68.30
2022-07-25T14:00:57.519Z,68.90
2022-07-25T14:03:25.543Z,68.50
2022-07-25T14:05:53.394Z,67.70
2022-07-25T14:08:21.302Z,68.00
2022-07-25T14:10:49.128Z,68.40
2022-07-25T14:13:16.975Z,66.60
2022-07-25T14:15:44.867Z,66.90
2022-07-25T14:18:14.126Z,67.80
2022-07-25T14:20:42.092Z,67.70
2022-07-25T14:23:09.911Z,67.70
2022-07-25T14:25:38.873Z,67.60
2022-07-25T14:28:06.729Z,67.40
2022-07-25T14:30:34.651Z,67.40
2022-07-25T14:33:03.230Z,66.90
2022-07-25T14:35:32.943Z,67.90
2022-07-25T14:38:01.141Z,67.90
2022-07-25T14:40:29.134Z,66.20
2022-07-25T14:42:56.973Z,67.70
2022-07-25T14:45:24.832Z,64.80
2022-07-25T14:47:52.700Z,67.50
2022-07-25T14:50:20.599Z,67.20
2022-07-25T14:52:49.828Z,63.60
2022-07-25T14:55:18.690Z,63.70
2022-07-25T14:57:46.563Z,67.50
2022-07-25T15:00:15.247Z,66.50
2022-07-25T15:02:43.099Z,67.30
2022-07-25T15:05:11.155Z,65.90
2022-07-25T15:07:39.677Z,68.90
2022-07-25T15:10:09.633Z,69.00
2022-07-25T15:12:37.615Z,69.00
2022-07-25T15:15:06.725Z,67.40
2022-07-25T15:17:34.687Z,64.80
2022-07-25T15:20:02.564Z,70.10
2022-07-25T15:22:30.436Z,70.90
2022-07-25T15:25:34.886Z,70.10
2022-07-25T15:27:47.439Z,70.00
2022-07-25T15:30:15.413Z,65.80
2022-07-25T15:32:43.256Z,69.40
2022-07-25T15:35:11.134Z,63.90
2022-07-25T15:37:38.955Z,63.40
2022-07-25T15:40:07.848Z,67.70
2022-07-25T15:42:36.174Z,64.60
2022-07-25T15:45:33.357Z,61.90
2022-07-25T15:47:53.733Z,64.50
2022-07-25T15:50:22.277Z,68.30
2022-07-25T15:52:50.474Z,68.10
2022-07-25T15:55:18.321Z,64.20
2022-07-25T15:57:46.183Z,61.70
2022-07-25T16:00:15.961Z,68.20
2022-07-25T16:02:44.243Z,64.60
2022-07-25T16:05:12.126Z,64.20
2022-07-25T16:07:40.355Z,63.00
2022-07-25T16:10:08.650Z,67.30
2022-07-25T16:12:36.543Z,62.90
2022-07-25T16:15:04.941Z,66.00
2022-07-25T16:17:34.430Z,67.00
2022-07-25T16:20:02.306Z,67.50
2022-07-25T16:22:30.180Z,67.50
2022-07-25T16:25:01.030Z,66.80
2022-07-25T16:27:29.071Z,67.70
2022-07-25T16:29:57.569Z,68.10
2022-07-25T16:32:25.540Z,68.60
2022-07-25T16:34:54.730Z,68.00
2022-07-25T16:37:22.805Z,66.00
2022-07-25T16:39:50.634Z,67.90
2022-07-25T16:42:18.459Z,68.10
2022-07-25T16:44:47.706Z,69.10
2022-07-25T16:47:15.555Z,67.70
2022-07-25T16:49:43.442Z,65.70
2022-07-25T16:52:12.630Z,68.30
2022-07-25T16:54:42.418Z,67.20
2022-07-25T16:57:10.273Z,69.50
2022-07-25T16:59:40.669Z,69.80
2022-07-25T17:02:08.569Z,68.30
2022-07-25T17:04:37.457Z,69.10
2022-07-25T17:07:05.394Z,69.50
2022-07-25T17:09:34.778Z,69.70
2022-07-25T17:12:02.583Z,69.90
2022-07-25T17:14:30.570Z,70.30
2022-07-25T17:16:58.690Z,69.90
2022-07-25T17:19:26.570Z,67.90
2022-07-25T17:21:54.411Z,70.40
2022-07-25T17:24:22.299Z,70.40
2022-07-25T17:26:51.452Z,71.00
2022-07-25T17:29:19.348Z,71.00
2022-07-25T17:31:47.374Z,71.30
2022-07-25T17:34:15.304Z,70.50
2022-07-25T17:36:43.524Z,71.80
2022-07-25T17:39:11.476Z,72.10
2022-07-25T17:41:39.297Z,72.10
2022-07-25T17:44:11.981Z,70.60
2022-07-25T17:46:40.362Z,72.50
2022-07-25T17:49:08.680Z,72.20
2022-07-25T17:51:36.587Z,72.40
2022-07-25T17:54:04.750Z,72.20
2022-07-25T17:56:33.443Z,71.10
2022-07-25T17:59:01.306Z,72.90
2022-07-25T18:01:30.632Z,72.00
2022-07-25T18:03:58.486Z,70.50
2022-07-25T18:06:29.729Z,71.60
2022-07-25T18:08:58.079Z,72.90
2022-07-25T18:11:26.306Z,74.10
2022-07-25T18:13:54.118Z,74.40
2022-07-25T18:16:22.026Z,74.80
2022-07-25T18:18:51.278Z,74.80
2022-07-25T18:21:20.267Z,75.10
2022-07-25T18:23:48.086Z,73.60
2022-07-25T18:26:16.248Z,74.60
2022-07-25T18:28:44.261Z,76.10
2022-07-25T18:31:12.354Z,75.00
2022-07-25T18:33:40.296Z,76.00
2022-07-25T18:36:10.017Z,75.70
2022-07-25T18:38:38.026Z,76.60
2022-07-25T18:41:28.139Z,75.80
2022-07-25T18:43:56.444Z,76.10
2022-07-25T18:46:25.142Z,77.00
2022-07-25T18:48:53.970Z,77.80
2022-07-25T18:51:23.340Z,78.70
2022-07-25T18:53:51.309Z,77.60
2022-07-25T18:56:19.159Z,78.80
2022-07-25T18:58:47.022Z,78.60
2022-07-25T19:01:15.171Z,78.40
2022-07-25T19:03:43.099Z,78.70
2022-07-25T19:06:11.456Z,78.20
2022-07-25T19:08:40.979Z,78.90
2022-07-25T19:11:09.970Z,79.10
2022-07-25T19:13:49.436Z,79.20
2022-07-25T19:16:17.760Z,79.30
2022-07-25T19:18:45.873Z,79.50
2022-07-25T19:21:13.944Z,80.00
2022-07-25T19:23:48.295Z,80.00
2022-07-25T19:26:18.805Z,80.00
2022-07-25T19:28:47.137Z,80.10
2022-07-25T19:31:15.275Z,80.30
2022-07-25T19:33:45.451Z,80.50
2022-07-25T19:36:13.603Z,80.70
2022-07-25T19:38:42.831Z,81.00
2022-07-25T19:41:11.439Z,81.10
2022-07-25T19:43:39.500Z,81.30
2022-07-25T19:46:07.835Z,81.50
2022-07-25T19:48:35.864Z,81.80
2022-07-25T19:51:03.770Z,81.90
2022-07-25T19:53:32.573Z,82.00
2022-07-25T19:56:02.010Z,82.20
2022-07-25T19:58:29.862Z,82.40
2022-07-25T20:00:57.882Z,82.50
2022-07-25T20:03:25.858Z,82.70
2022-07-25T20:05:53.643Z,83.00
2022-07-25T20:08:21.602Z,83.30
2022-07-25T20:10:49.602Z,83.30
2022-07-25T20:13:18.787Z,83.20
2022-07-25T20:15:46.652Z,83.50
2022-07-25T20:18:19.270Z,83.70
2022-07-25T20:20:48.023Z,83.70
2022-07-25T20:23:15.927Z,83.70
2022-07-25T20:25:43.989Z,83.80
2022-07-25T20:28:11.861Z,84.00
2022-07-25T20:30:41.614Z,85.90
2022-07-25T20:33:10.061Z,85.60
2022-07-25T20:35:38.851Z,88.90
2022-07-25T20:38:10.053Z,88.50
2022-07-25T20:40:42.896Z,90.00
2022-07-25T20:43:14.470Z,91.20
2022-07-25T20:45:44.011Z,88.90
2022-07-25T20:48:11.903Z,88.80
2022-07-25T20:50:40.374Z,90.10
2022-07-25T20:53:09.054Z,90.30
2022-07-25T20:55:37.499Z,93.50
2022-07-25T20:58:05.911Z,92.70
2022-07-25T21:00:34.211Z,92.20
2022-07-25T21:03:04.112Z,91.80
2022-07-25T21:05:37.524Z,91.80
2022-07-25T21:08:06.025Z,91.90
2022-07-25T21:10:34.201Z,92.30
2022-07-25T21:13:02.407Z,93.30
2022-07-25T21:15:31.571Z,94.40
2022-07-25T21:18:00.318Z,93.40
2022-07-25T21:20:29.673Z,93.60
2022-07-25T21:22:57.567Z,93.80
2022-07-25T21:25:25.405Z,93.90
2022-07-25T21:27:53.390Z,94.30
2022-07-25T21:30:21.212Z,94.30
2022-07-25T21:32:49.053Z,95.40
2022-07-25T21:35:18.033Z,99.90
2022-07-25T21:37:47.626Z,99.90
2022-07-25T21:40:15.862Z,99.90
2022-07-25T21:42:43.874Z,99.90
2022-07-25T21:45:12.587Z,99.90
2022-07-25T21:47:40.410Z,99.90
2022-07-25T21:50:26.426Z,99.90
2022-07-25T21:52:55.843Z,99.90
2022-07-25T21:55:24.200Z,99.90
2022-07-25T21:57:52.429Z,99.90
2022-07-25T22:00:20.635Z,99.90
2022-07-25T22:02:48.771Z,99.90
2022-07-25T22:05:18.776Z,99.90
2022-07-25T22:07:48.026Z,99.90
2022-07-25T22:10:19.109Z,99.90
2022-07-25T22:12:47.370Z,99.90
2022-07-25T22:15:16.334Z,99.90
2022-07-25T22:17:48.980Z,99.90
2022-07-25T22:20:18.100Z,99.90
2022-07-25T22:22:46.484Z,99.90
2022-07-25T22:25:14.614Z,99.90
2022-07-25T22:27:44.438Z,99.90
2022-07-25T22:30:18.494Z,99.90
2022-07-25T22:32:47.700Z,99.90
2022-07-25T22:35:15.662Z,99.90
2022-07-25T22:37:43.851Z,99.90
2022-07-25T22:40:12.730Z,99.90
2022-07-25T22:42:40.544Z,99.90
2022-07-25T22:45:11.067Z,99.90
2022-07-25T22:47:39.521Z,99.90
2022-07-25T22:50:09.490Z,99.90
2022-07-25T22:52:37.298Z,99.90
2022-07-25T22:55:05.897Z,99.90
2022-07-25T22:57:37.299Z,99.90
2022-07-25T23:02:48.730Z,99.90
2022-07-25T23:05:16.978Z,99.90
2022-07-25T23:07:44.881Z,99.90
2022-07-25T23:10:12.864Z,99.90
2022-07-25T23:12:40.814Z,99.90
2022-07-25T23:15:09.898Z,99.90
2022-07-25T23:17:37.764Z,99.90
2022-07-25T23:20:08.446Z,99.90
2022-07-25T23:22:36.274Z,99.90
2022-07-25T23:25:04.371Z,99.90
2022-07-25T23:27:34.912Z,99.90
2022-07-25T23:30:03.544Z,99.90
2022-07-25T23:32:31.313Z,99.90
2022-07-25T23:34:59.373Z,99.90
2022-07-25T23:37:28.623Z,99.90
2022-07-25T23:39:56.474Z,99.90
2022-07-25T23:42:24.389Z,99.90
2022-07-25T23:44:52.191Z,99.90
2022-07-25T23:47:25.403Z,99.90
2022-07-25T23:49:56.309Z,99.90
2022-07-25T23:52:24.117Z,99.90
2022-07-25T23:54:53.365Z,99.90
2022-07-25T23:57:21.212Z,99.90
2022-07-25T23:59:49.010Z,99.90
